sensor_id;sensor_type;location;lat;lon;timestamp;P1;durP1;ratioP1;P2;durP2;ratioP2
49826;SDS011;35715;51.570;6.036;2023-12-20T00:01:50;13.45;;;9.05;;
49826;SDS011;35715;51.570;6.036;2023-12-20T00:04:15;12.50;;;7.72;;
49826;SDS011;35715;51.570;6.036;2023-12-20T00:06:40;15.63;;;8.35;;
49826;SDS011;35715;51.570;6.036;2023-12-20T00:09:06;14.80;;;7.93;;
49826;SDS011;35715;51.570;6.036;2023-12-20T00:11:31;11.65;;;6.65;;
49826;SDS011;35715;51.570;6.036;2023-12-20T00:13:56;22.13;;;7.63;;
49826;SDS011;35715;51.570;6.036;2023-12-20T00:16:21;15.52;;;8.43;;
49826;SDS011;35715;51.570;6.036;2023-12-20T00:18:47;13.65;;;6.88;;
49826;SDS011;35715;51.570;6.036;2023-12-20T00:21:12;15.40;;;6.78;;
49826;SDS011;35715;51.570;6.036;2023-12-20T00:23:37;8.60;;;6.38;;
49826;SDS011;35715;51.570;6.036;2023-12-20T00:26:03;19.13;;;7.35;;
49826;SDS011;35715;51.570;6.036;2023-12-20T00:28:28;15.30;;;6.65;;
49826;SDS011;35715;51.570;6.036;2023-12-20T00:30:53;14.10;;;7.25;;
49826;SDS011;35715;51.570;6.036;2023-12-20T00:33:19;17.40;;;6.18;;
49826;SDS011;35715;51.570;6.036;2023-12-20T00:35:47;18.90;;;6.55;;
49826;SDS011;35715;51.570;6.036;2023-12-20T00:38:13;10.45;;;7.30;;
49826;SDS011;35715;51.570;6.036;2023-12-20T00:40:38;8.88;;;5.88;;
49826;SDS011;35715;51.570;6.036;2023-12-20T00:43:03;16.55;;;7.97;;
49826;SDS011;35715;51.570;6.036;2023-12-20T00:45:29;13.18;;;7.80;;
49826;SDS011;35715;51.570;6.036;2023-12-20T00:47:54;10.70;;;8.25;;
49826;SDS011;35715;51.570;6.036;2023-12-20T00:50:19;16.13;;;8.45;;
49826;SDS011;35715;51.570;6.036;2023-12-20T00:52:46;21.08;;;8.70;;
49826;SDS011;35715;51.570;6.036;2023-12-20T00:55:12;17.38;;;8.10;;
49826;SDS011;35715;51.570;6.036;2023-12-20T00:57:37;9.60;;;6.60;;
49826;SDS011;35715;51.570;6.036;2023-12-20T01:00:06;20.67;;;8.77;;
49826;SDS011;35715;51.570;6.036;2023-12-20T01:02:31;9.88;;;7.20;;
49826;SDS011;35715;51.570;6.036;2023-12-20T01:04:57;20.25;;;9.77;;
49826;SDS011;35715;51.570;6.036;2023-12-20T01:07:22;11.27;;;7.82;;
49826;SDS011;35715;51.570;6.036;2023-12-20T01:09:48;18.20;;;8.30;;
49826;SDS011;35715;51.570;6.036;2023-12-20T01:12:13;19.27;;;8.02;;
49826;SDS011;35715;51.570;6.036;2023-12-20T01:14:38;11.18;;;6.80;;
49826;SDS011;35715;51.570;6.036;2023-12-20T01:17:04;17.92;;;7.38;;
49826;SDS011;35715;51.570;6.036;2023-12-20T01:19:29;16.00;;;8.07;;
49826;SDS011;35715;51.570;6.036;2023-12-20T01:21:55;25.05;;;8.00;;
49826;SDS011;35715;51.570;6.036;2023-12-20T01:24:20;15.07;;;6.70;;
49826;SDS011;35715;51.570;6.036;2023-12-20T01:26:46;19.92;;;6.82;;
49826;SDS011;35715;51.570;6.036;2023-12-20T01:29:11;22.00;;;6.20;;
49826;SDS011;35715;51.570;6.036;2023-12-20T01:31:37;10.05;;;5.40;;
49826;SDS011;35715;51.570;6.036;2023-12-20T01:34:02;14.23;;;6.45;;
49826;SDS011;35715;51.570;6.036;2023-12-20T01:36:27;12.32;;;5.10;;
49826;SDS011;35715;51.570;6.036;2023-12-20T01:38:54;37.65;;;7.72;;
49826;SDS011;35715;51.570;6.036;2023-12-20T01:41:19;17.35;;;6.10;;
49826;SDS011;35715;51.570;6.036;2023-12-20T01:43:44;14.25;;;4.57;;
49826;SDS011;35715;51.570;6.036;2023-12-20T01:46:10;9.77;;;4.45;;
49826;SDS011;35715;51.570;6.036;2023-12-20T01:48:35;24.70;;;6.53;;
49826;SDS011;35715;51.570;6.036;2023-12-20T01:51:01;20.30;;;5.10;;
49826;SDS011;35715;51.570;6.036;2023-12-20T01:53:27;14.40;;;3.88;;
49826;SDS011;35715;51.570;6.036;2023-12-20T01:55:54;19.20;;;4.32;;
49826;SDS011;35715;51.570;6.036;2023-12-20T01:58:21;8.02;;;3.70;;
49826;SDS011;35715;51.570;6.036;2023-12-20T02:00:48;14.15;;;4.15;;
49826;SDS011;35715;51.570;6.036;2023-12-20T02:03:15;12.15;;;4.60;;
49826;SDS011;35715;51.570;6.036;2023-12-20T02:05:42;18.55;;;4.38;;
49826;SDS011;35715;51.570;6.036;2023-12-20T02:08:09;15.45;;;3.72;;
49826;SDS011;35715;51.570;6.036;2023-12-20T02:10:34;14.18;;;3.80;;
49826;SDS011;35715;51.570;6.036;2023-12-20T02:13:00;13.00;;;3.83;;
49826;SDS011;35715;51.570;6.036;2023-12-20T02:15:25;25.13;;;5.07;;
49826;SDS011;35715;51.570;6.036;2023-12-20T02:17:50;8.10;;;3.47;;
49826;SDS011;35715;51.570;6.036;2023-12-20T02:20:16;11.45;;;3.95;;
49826;SDS011;35715;51.570;6.036;2023-12-20T02:22:44;15.35;;;3.38;;
49826;SDS011;35715;51.570;6.036;2023-12-20T02:25:10;14.02;;;3.45;;
49826;SDS011;35715;51.570;6.036;2023-12-20T02:27:35;17.52;;;4.07;;
49826;SDS011;35715;51.570;6.036;2023-12-20T02:30:01;21.40;;;3.45;;
49826;SDS011;35715;51.570;6.036;2023-12-20T02:32:30;13.25;;;3.38;;
49826;SDS011;35715;51.570;6.036;2023-12-20T02:34:55;13.50;;;4.03;;
49826;SDS011;35715;51.570;6.036;2023-12-20T02:37:21;10.90;;;3.30;;
49826;SDS011;35715;51.570;6.036;2023-12-20T02:39:46;22.30;;;4.97;;
49826;SDS011;35715;51.570;6.036;2023-12-20T02:42:12;17.17;;;3.95;;
49826;SDS011;35715;51.570;6.036;2023-12-20T02:44:37;14.95;;;3.90;;
49826;SDS011;35715;51.570;6.036;2023-12-20T02:47:04;33.63;;;5.60;;
49826;SDS011;35715;51.570;6.036;2023-12-20T02:49:29;14.75;;;2.72;;
49826;SDS011;35715;51.570;6.036;2023-12-20T02:51:54;21.17;;;3.75;;
49826;SDS011;35715;51.570;6.036;2023-12-20T02:54:20;21.15;;;3.70;;
49826;SDS011;35715;51.570;6.036;2023-12-20T02:56:45;19.23;;;3.67;;
49826;SDS011;35715;51.570;6.036;2023-12-20T02:59:10;18.70;;;3.35;;
49826;SDS011;35715;51.570;6.036;2023-12-20T03:01:41;13.35;;;3.40;;
49826;SDS011;35715;51.570;6.036;2023-12-20T03:04:10;14.68;;;4.07;;
49826;SDS011;35715;51.570;6.036;2023-12-20T03:06:35;18.42;;;4.15;;
49826;SDS011;35715;51.570;6.036;2023-12-20T03:09:00;10.27;;;3.08;;
49826;SDS011;35715;51.570;6.036;2023-12-20T03:11:26;11.57;;;3.28;;
49826;SDS011;35715;51.570;6.036;2023-12-20T03:13:53;19.58;;;3.67;;
49826;SDS011;35715;51.570;6.036;2023-12-20T03:16:18;18.17;;;3.90;;
49826;SDS011;35715;51.570;6.036;2023-12-20T03:18:43;18.48;;;2.95;;
49826;SDS011;35715;51.570;6.036;2023-12-20T03:21:09;13.13;;;2.95;;
49826;SDS011;35715;51.570;6.036;2023-12-20T03:23:34;9.93;;;3.50;;
49826;SDS011;35715;51.570;6.036;2023-12-20T03:25:59;14.20;;;4.30;;
49826;SDS011;35715;51.570;6.036;2023-12-20T03:28:25;16.65;;;4.97;;
49826;SDS011;35715;51.570;6.036;2023-12-20T03:30:51;27.63;;;4.50;;
49826;SDS011;35715;51.570;6.036;2023-12-20T03:33:16;19.00;;;4.03;;
49826;SDS011;35715;51.570;6.036;2023-12-20T03:35:42;11.93;;;3.00;;
49826;SDS011;35715;51.570;6.036;2023-12-20T03:38:09;14.18;;;3.97;;
49826;SDS011;35715;51.570;6.036;2023-12-20T03:40:38;16.60;;;4.57;;
49826;SDS011;35715;51.570;6.036;2023-12-20T03:43:03;16.27;;;4.40;;
49826;SDS011;35715;51.570;6.036;2023-12-20T03:45:28;14.30;;;3.78;;
49826;SDS011;35715;51.570;6.036;2023-12-20T03:47:54;15.13;;;3.05;;
49826;SDS011;35715;51.570;6.036;2023-12-20T03:50:24;13.07;;;3.80;;
49826;SDS011;35715;51.570;6.036;2023-12-20T03:52:50;19.95;;;3.60;;
49826;SDS011;35715;51.570;6.036;2023-12-20T03:55:15;14.63;;;4.82;;
49826;SDS011;35715;51.570;6.036;2023-12-20T03:57:40;17.80;;;4.78;;
49826;SDS011;35715;51.570;6.036;2023-12-20T04:00:09;18.90;;;5.05;;
49826;SDS011;35715;51.570;6.036;2023-12-20T04:02:38;18.40;;;5.78;;
49826;SDS011;35715;51.570;6.036;2023-12-20T04:05:05;14.93;;;4.07;;
49826;SDS011;35715;51.570;6.036;2023-12-20T04:07:31;22.00;;;3.90;;
49826;SDS011;35715;51.570;6.036;2023-12-20T04:09:59;26.80;;;4.53;;
49826;SDS011;35715;51.570;6.036;2023-12-20T04:12:25;20.38;;;4.80;;
49826;SDS011;35715;51.570;6.036;2023-12-20T04:14:52;21.80;;;4.25;;
49826;SDS011;35715;51.570;6.036;2023-12-20T04:17:17;11.48;;;3.40;;
49826;SDS011;35715;51.570;6.036;2023-12-20T04:19:43;16.33;;;3.97;;
49826;SDS011;35715;51.570;6.036;2023-12-20T04:22:11;22.15;;;5.28;;
49826;SDS011;35715;51.570;6.036;2023-12-20T04:24:40;18.70;;;4.18;;
49826;SDS011;35715;51.570;6.036;2023-12-20T04:27:07;5.43;;;1.98;;
49826;SDS011;35715;51.570;6.036;2023-12-20T04:29:33;10.48;;;4.93;;
49826;SDS011;35715;51.570;6.036;2023-12-20T04:31:58;13.48;;;4.80;;
49826;SDS011;35715;51.570;6.036;2023-12-20T04:34:24;10.95;;;4.35;;
49826;SDS011;35715;51.570;6.036;2023-12-20T04:36:49;17.45;;;4.95;;
49826;SDS011;35715;51.570;6.036;2023-12-20T04:39:14;15.35;;;4.82;;
49826;SDS011;35715;51.570;6.036;2023-12-20T04:41:40;18.83;;;5.50;;
49826;SDS011;35715;51.570;6.036;2023-12-20T04:44:06;22.63;;;4.70;;
49826;SDS011;35715;51.570;6.036;2023-12-20T04:46:32;17.73;;;4.20;;
49826;SDS011;35715;51.570;6.036;2023-12-20T04:48:58;20.23;;;5.57;;
49826;SDS011;35715;51.570;6.036;2023-12-20T04:51:33;20.55;;;5.13;;
49826;SDS011;35715;51.570;6.036;2023-12-20T04:53:58;22.23;;;4.97;;
49826;SDS011;35715;51.570;6.036;2023-12-20T04:56:24;18.08;;;4.53;;
49826;SDS011;35715;51.570;6.036;2023-12-20T04:58:49;14.27;;;4.63;;
49826;SDS011;35715;51.570;6.036;2023-12-20T05:01:14;14.68;;;6.85;;
49826;SDS011;35715;51.570;6.036;2023-12-20T05:03:40;15.25;;;6.10;;
49826;SDS011;35715;51.570;6.036;2023-12-20T05:06:09;24.55;;;6.07;;
49826;SDS011;35715;51.570;6.036;2023-12-20T05:08:35;21.20;;;6.28;;
49826;SDS011;35715;51.570;6.036;2023-12-20T05:11:00;24.02;;;7.05;;
49826;SDS011;35715;51.570;6.036;2023-12-20T05:13:29;18.33;;;6.15;;
49826;SDS011;35715;51.570;6.036;2023-12-20T05:15:54;32.47;;;9.20;;
49826;SDS011;35715;51.570;6.036;2023-12-20T05:18:20;28.38;;;7.15;;
49826;SDS011;35715;51.570;6.036;2023-12-20T05:20:46;16.25;;;6.35;;
49826;SDS011;35715;51.570;6.036;2023-12-20T05:23:11;20.38;;;5.80;;
49826;SDS011;35715;51.570;6.036;2023-12-20T05:25:38;19.55;;;4.93;;
49826;SDS011;35715;51.570;6.036;2023-12-20T05:28:03;21.85;;;6.65;;
49826;SDS011;35715;51.570;6.036;2023-12-20T05:30:29;11.70;;;5.13;;
49826;SDS011;35715;51.570;6.036;2023-12-20T05:32:54;26.48;;;6.45;;
49826;SDS011;35715;51.570;6.036;2023-12-20T05:35:20;16.77;;;6.07;;
49826;SDS011;35715;51.570;6.036;2023-12-20T05:37:47;21.52;;;6.30;;
49826;SDS011;35715;51.570;6.036;2023-12-20T05:40:12;18.17;;;6.45;;
49826;SDS011;35715;51.570;6.036;2023-12-20T05:42:38;18.73;;;7.05;;
49826;SDS011;35715;51.570;6.036;2023-12-20T05:45:03;24.23;;;8.10;;
49826;SDS011;35715;51.570;6.036;2023-12-20T05:47:30;18.33;;;6.60;;
49826;SDS011;35715;51.570;6.036;2023-12-20T05:49:55;19.80;;;5.78;;
49826;SDS011;35715;51.570;6.036;2023-12-20T05:52:20;19.20;;;6.72;;
49826;SDS011;35715;51.570;6.036;2023-12-20T05:54:49;23.23;;;6.07;;
49826;SDS011;35715;51.570;6.036;2023-12-20T05:57:14;19.05;;;7.63;;
49826;SDS011;35715;51.570;6.036;2023-12-20T05:59:39;22.60;;;7.25;;
49826;SDS011;35715;51.570;6.036;2023-12-20T06:02:05;20.00;;;5.97;;
49826;SDS011;35715;51.570;6.036;2023-12-20T06:04:30;20.25;;;5.40;;
49826;SDS011;35715;51.570;6.036;2023-12-20T06:06:56;15.73;;;5.30;;
49826;SDS011;35715;51.570;6.036;2023-12-20T06:09:21;27.77;;;7.53;;
49826;SDS011;35715;51.570;6.036;2023-12-20T06:11:47;21.90;;;8.90;;
49826;SDS011;35715;51.570;6.036;2023-12-20T06:14:12;28.88;;;7.80;;
49826;SDS011;35715;51.570;6.036;2023-12-20T06:16:37;18.27;;;5.07;;
49826;SDS011;35715;51.570;6.036;2023-12-20T06:19:03;23.35;;;5.45;;
49826;SDS011;35715;51.570;6.036;2023-12-20T06:21:28;25.08;;;6.05;;
49826;SDS011;35715;51.570;6.036;2023-12-20T06:23:53;22.85;;;7.13;;
49826;SDS011;35715;51.570;6.036;2023-12-20T06:26:19;17.52;;;5.85;;
49826;SDS011;35715;51.570;6.036;2023-12-20T06:28:45;18.65;;;7.40;;
49826;SDS011;35715;51.570;6.036;2023-12-20T06:31:10;19.17;;;7.22;;
49826;SDS011;35715;51.570;6.036;2023-12-20T06:33:36;25.42;;;9.27;;
49826;SDS011;35715;51.570;6.036;2023-12-20T06:36:04;26.80;;;7.63;;
49826;SDS011;35715;51.570;6.036;2023-12-20T06:38:33;18.08;;;6.63;;
49826;SDS011;35715;51.570;6.036;2023-12-20T06:40:58;15.23;;;6.00;;
49826;SDS011;35715;51.570;6.036;2023-12-20T06:43:24;18.58;;;6.00;;
49826;SDS011;35715;51.570;6.036;2023-12-20T06:45:49;25.15;;;7.55;;
49826;SDS011;35715;51.570;6.036;2023-12-20T06:48:15;25.83;;;8.20;;
49826;SDS011;35715;51.570;6.036;2023-12-20T06:50:41;31.10;;;10.10;;
49826;SDS011;35715;51.570;6.036;2023-12-20T06:53:06;27.38;;;7.03;;
49826;SDS011;35715;51.570;6.036;2023-12-20T06:55:35;29.70;;;10.25;;
49826;SDS011;35715;51.570;6.036;2023-12-20T06:58:02;25.85;;;8.80;;
49826;SDS011;35715;51.570;6.036;2023-12-20T07:00:28;19.70;;;7.68;;
49826;SDS011;35715;51.570;6.036;2023-12-20T07:02:53;18.67;;;7.32;;
49826;SDS011;35715;51.570;6.036;2023-12-20T07:05:19;24.00;;;7.50;;
49826;SDS011;35715;51.570;6.036;2023-12-20T07:07:44;22.02;;;6.85;;
49826;SDS011;35715;51.570;6.036;2023-12-20T07:10:11;22.23;;;7.00;;
49826;SDS011;35715;51.570;6.036;2023-12-20T07:12:36;26.30;;;7.75;;
49826;SDS011;35715;51.570;6.036;2023-12-20T07:15:02;24.05;;;7.25;;
49826;SDS011;35715;51.570;6.036;2023-12-20T07:17:28;14.65;;;4.90;;
49826;SDS011;35715;51.570;6.036;2023-12-20T07:19:53;17.15;;;6.85;;
49826;SDS011;35715;51.570;6.036;2023-12-20T07:22:19;12.45;;;5.47;;
49826;SDS011;35715;51.570;6.036;2023-12-20T07:24:44;19.38;;;6.80;;
49826;SDS011;35715;51.570;6.036;2023-12-20T07:27:10;20.73;;;7.88;;
49826;SDS011;35715;51.570;6.036;2023-12-20T07:29:50;21.20;;;5.88;;
49826;SDS011;35715;51.570;6.036;2023-12-20T07:32:18;23.17;;;8.27;;
49826;SDS011;35715;51.570;6.036;2023-12-20T07:34:43;10.45;;;4.22;;
49826;SDS011;35715;51.570;6.036;2023-12-20T07:37:21;18.60;;;5.13;;
49826;SDS011;35715;51.570;6.036;2023-12-20T07:39:47;22.20;;;4.50;;
49826;SDS011;35715;51.570;6.036;2023-12-20T07:42:12;23.83;;;4.82;;
49826;SDS011;35715;51.570;6.036;2023-12-20T07:44:37;22.75;;;4.57;;
49826;SDS011;35715;51.570;6.036;2023-12-20T07:47:03;27.15;;;6.85;;
49826;SDS011;35715;51.570;6.036;2023-12-20T07:49:29;14.98;;;4.35;;
49826;SDS011;35715;51.570;6.036;2023-12-20T07:51:55;22.15;;;5.65;;
49826;SDS011;35715;51.570;6.036;2023-12-20T07:54:21;36.45;;;7.72;;
49826;SDS011;35715;51.570;6.036;2023-12-20T07:56:46;18.27;;;5.40;;
49826;SDS011;35715;51.570;6.036;2023-12-20T07:59:12;20.23;;;5.25;;
49826;SDS011;35715;51.570;6.036;2023-12-20T08:01:37;14.10;;;4.95;;
49826;SDS011;35715;51.570;6.036;2023-12-20T08:04:03;19.58;;;6.25;;
49826;SDS011;35715;51.570;6.036;2023-12-20T08:06:28;23.85;;;5.47;;
49826;SDS011;35715;51.570;6.036;2023-12-20T08:08:53;19.23;;;5.28;;
49826;SDS011;35715;51.570;6.036;2023-12-20T08:11:19;20.25;;;4.47;;
49826;SDS011;35715;51.570;6.036;2023-12-20T08:13:44;16.75;;;5.30;;
49826;SDS011;35715;51.570;6.036;2023-12-20T08:16:09;12.93;;;5.00;;
49826;SDS011;35715;51.570;6.036;2023-12-20T08:18:38;14.95;;;3.95;;
49826;SDS011;35715;51.570;6.036;2023-12-20T08:21:03;34.08;;;4.78;;
49826;SDS011;35715;51.570;6.036;2023-12-20T08:23:29;17.17;;;4.38;;
49826;SDS011;35715;51.570;6.036;2023-12-20T08:25:54;19.25;;;5.75;;
49826;SDS011;35715;51.570;6.036;2023-12-20T08:28:19;14.25;;;4.03;;
49826;SDS011;35715;51.570;6.036;2023-12-20T08:30:45;15.40;;;5.18;;
49826;SDS011;35715;51.570;6.036;2023-12-20T08:33:10;17.23;;;4.50;;
49826;SDS011;35715;51.570;6.036;2023-12-20T08:35:38;19.48;;;4.15;;
49826;SDS011;35715;51.570;6.036;2023-12-20T08:38:10;12.55;;;4.70;;
49826;SDS011;35715;51.570;6.036;2023-12-20T08:40:37;17.70;;;6.45;;
49826;SDS011;35715;51.570;6.036;2023-12-20T08:43:02;18.15;;;6.30;;
49826;SDS011;35715;51.570;6.036;2023-12-20T08:45:28;26.58;;;8.32;;
49826;SDS011;35715;51.570;6.036;2023-12-20T08:47:53;14.40;;;4.22;;
49826;SDS011;35715;51.570;6.036;2023-12-20T08:50:19;42.08;;;7.63;;
49826;SDS011;35715;51.570;6.036;2023-12-20T08:52:44;27.10;;;5.47;;
49826;SDS011;35715;51.570;6.036;2023-12-20T08:55:10;17.30;;;4.68;;
49826;SDS011;35715;51.570;6.036;2023-12-20T08:57:39;19.65;;;4.38;;
49826;SDS011;35715;51.570;6.036;2023-12-20T09:00:05;35.17;;;7.13;;
49826;SDS011;35715;51.570;6.036;2023-12-20T09:02:32;18.90;;;4.60;;
49826;SDS011;35715;51.570;6.036;2023-12-20T09:05:00;18.75;;;4.63;;
49826;SDS011;35715;51.570;6.036;2023-12-20T09:07:27;24.13;;;4.53;;
49826;SDS011;35715;51.570;6.036;2023-12-20T09:09:54;18.45;;;6.82;;
49826;SDS011;35715;51.570;6.036;2023-12-20T09:12:23;12.50;;;4.13;;
49826;SDS011;35715;51.570;6.036;2023-12-20T09:14:49;18.13;;;4.55;;
49826;SDS011;35715;51.570;6.036;2023-12-20T09:17:15;20.38;;;5.70;;
49826;SDS011;35715;51.570;6.036;2023-12-20T09:19:42;17.15;;;4.38;;
49826;SDS011;35715;51.570;6.036;2023-12-20T09:22:08;20.90;;;3.72;;
49826;SDS011;35715;51.570;6.036;2023-12-20T09:24:34;19.63;;;4.38;;
49826;SDS011;35715;51.570;6.036;2023-12-20T09:26:59;12.05;;;5.13;;
49826;SDS011;35715;51.570;6.036;2023-12-20T09:29:25;11.88;;;5.28;;
49826;SDS011;35715;51.570;6.036;2023-12-20T09:31:53;11.57;;;3.70;;
49826;SDS011;35715;51.570;6.036;2023-12-20T09:34:18;24.30;;;7.05;;
49826;SDS011;35715;51.570;6.036;2023-12-20T09:36:43;16.38;;;4.78;;
49826;SDS011;35715;51.570;6.036;2023-12-20T09:39:15;16.90;;;4.68;;
49826;SDS011;35715;51.570;6.036;2023-12-20T09:41:46;21.00;;;5.72;;
49826;SDS011;35715;51.570;6.036;2023-12-20T09:44:21;25.42;;;5.15;;
49826;SDS011;35715;51.570;6.036;2023-12-20T09:46:49;22.52;;;6.53;;
49826;SDS011;35715;51.570;6.036;2023-12-20T09:49:15;12.75;;;3.58;;
49826;SDS011;35715;51.570;6.036;2023-12-20T09:51:42;16.63;;;5.65;;
49826;SDS011;35715;51.570;6.036;2023-12-20T09:54:07;25.15;;;6.03;;
49826;SDS011;35715;51.570;6.036;2023-12-20T09:56:34;14.45;;;4.60;;
49826;SDS011;35715;51.570;6.036;2023-12-20T09:59:00;23.60;;;5.60;;
49826;SDS011;35715;51.570;6.036;2023-12-20T10:01:25;18.67;;;4.28;;
49826;SDS011;35715;51.570;6.036;2023-12-20T10:03:51;14.73;;;4.55;;
49826;SDS011;35715;51.570;6.036;2023-12-20T10:06:19;20.40;;;5.93;;
49826;SDS011;35715;51.570;6.036;2023-12-20T10:08:46;17.48;;;5.47;;
49826;SDS011;35715;51.570;6.036;2023-12-20T10:11:11;24.88;;;4.90;;
49826;SDS011;35715;51.570;6.036;2023-12-20T10:13:40;16.42;;;5.45;;
49826;SDS011;35715;51.570;6.036;2023-12-20T10:16:06;13.63;;;2.83;;
49826;SDS011;35715;51.570;6.036;2023-12-20T10:18:37;13.98;;;3.47;;
49826;SDS011;35715;51.570;6.036;2023-12-20T10:21:03;16.00;;;4.15;;
49826;SDS011;35715;51.570;6.036;2023-12-20T10:23:35;12.35;;;4.35;;
49826;SDS011;35715;51.570;6.036;2023-12-20T10:26:00;14.73;;;4.60;;
49826;SDS011;35715;51.570;6.036;2023-12-20T10:28:26;12.30;;;3.00;;
49826;SDS011;35715;51.570;6.036;2023-12-20T10:30:59;12.50;;;4.55;;
49826;SDS011;35715;51.570;6.036;2023-12-20T10:33:25;18.00;;;4.80;;
49826;SDS011;35715;51.570;6.036;2023-12-20T10:35:51;14.90;;;4.55;;
49826;SDS011;35715;51.570;6.036;2023-12-20T10:38:17;23.75;;;4.18;;
49826;SDS011;35715;51.570;6.036;2023-12-20T10:40:43;18.23;;;4.60;;
49826;SDS011;35715;51.570;6.036;2023-12-20T10:43:10;19.45;;;3.08;;
49826;SDS011;35715;51.570;6.036;2023-12-20T10:45:36;18.40;;;5.57;;
49826;SDS011;35715;51.570;6.036;2023-12-20T10:48:02;11.90;;;3.42;;
49826;SDS011;35715;51.570;6.036;2023-12-20T10:50:28;18.77;;;3.90;;
49826;SDS011;35715;51.570;6.036;2023-12-20T10:53:03;20.75;;;4.57;;
49826;SDS011;35715;51.570;6.036;2023-12-20T10:55:31;16.77;;;3.58;;
49826;SDS011;35715;51.570;6.036;2023-12-20T10:58:01;22.40;;;4.93;;
49826;SDS011;35715;51.570;6.036;2023-12-20T11:00:28;13.55;;;4.70;;
49826;SDS011;35715;51.570;6.036;2023-12-20T11:02:55;20.35;;;4.60;;
49826;SDS011;35715;51.570;6.036;2023-12-20T11:05:28;14.50;;;3.83;;
49826;SDS011;35715;51.570;6.036;2023-12-20T11:08:19;21.00;;;4.65;;
49826;SDS011;35715;51.570;6.036;2023-12-20T11:10:59;15.40;;;4.38;;
49826;SDS011;35715;51.570;6.036;2023-12-20T11:13:36;20.13;;;5.63;;
49826;SDS011;35715;51.570;6.036;2023-12-20T11:16:09;15.55;;;5.38;;
49826;SDS011;35715;51.570;6.036;2023-12-20T11:18:35;23.33;;;4.95;;
49826;SDS011;35715;51.570;6.036;2023-12-20T11:21:01;18.20;;;4.88;;
49826;SDS011;35715;51.570;6.036;2023-12-20T11:25:59;11.93;;;3.95;;
49826;SDS011;35715;51.570;6.036;2023-12-20T11:28:26;19.17;;;4.78;;
49826;SDS011;35715;51.570;6.036;2023-12-20T11:30:53;16.05;;;4.63;;
49826;SDS011;35715;51.570;6.036;2023-12-20T11:33:24;24.48;;;7.70;;
49826;SDS011;35715;51.570;6.036;2023-12-20T11:35:51;22.48;;;4.10;;
49826;SDS011;35715;51.570;6.036;2023-12-20T11:38:20;31.00;;;5.07;;
49826;SDS011;35715;51.570;6.036;2023-12-20T11:40:48;22.20;;;6.00;;
49826;SDS011;35715;51.570;6.036;2023-12-20T11:43:30;12.70;;;3.33;;
49826;SDS011;35715;51.570;6.036;2023-12-20T11:45:56;21.27;;;5.97;;
49826;SDS011;35715;51.570;6.036;2023-12-20T11:48:29;17.95;;;5.20;;
49826;SDS011;35715;51.570;6.036;2023-12-20T11:51:02;19.08;;;7.13;;
49826;SDS011;35715;51.570;6.036;2023-12-20T11:53:29;20.75;;;7.28;;
49826;SDS011;35715;51.570;6.036;2023-12-20T11:55:58;27.98;;;8.05;;
49826;SDS011;35715;51.570;6.036;2023-12-20T11:58:24;21.40;;;6.55;;
49826;SDS011;35715;51.570;6.036;2023-12-20T12:00:52;33.42;;;8.80;;
49826;SDS011;35715;51.570;6.036;2023-12-20T12:03:17;22.40;;;7.28;;
49826;SDS011;35715;51.570;6.036;2023-12-20T12:05:43;14.52;;;5.63;;
49826;SDS011;35715;51.570;6.036;2023-12-20T12:08:08;32.25;;;8.20;;
49826;SDS011;35715;51.570;6.036;2023-12-20T12:10:33;21.73;;;5.07;;
49826;SDS011;35715;51.570;6.036;2023-12-20T12:12:59;22.88;;;7.07;;
49826;SDS011;35715;51.570;6.036;2023-12-20T12:15:26;18.23;;;4.72;;
49826;SDS011;35715;51.570;6.036;2023-12-20T12:17:55;20.35;;;4.38;;
49826;SDS011;35715;51.570;6.036;2023-12-20T12:20:21;19.08;;;4.53;;
49826;SDS011;35715;51.570;6.036;2023-12-20T12:23:06;14.23;;;5.22;;
49826;SDS011;35715;51.570;6.036;2023-12-20T12:25:32;9.50;;;4.35;;
49826;SDS011;35715;51.570;6.036;2023-12-20T12:28:00;23.00;;;6.30;;
49826;SDS011;35715;51.570;6.036;2023-12-20T12:30:26;17.23;;;4.70;;
49826;SDS011;35715;51.570;6.036;2023-12-20T12:32:52;24.90;;;6.13;;
49826;SDS011;35715;51.570;6.036;2023-12-20T12:35:18;31.00;;;6.60;;
49826;SDS011;35715;51.570;6.036;2023-12-20T12:37:44;15.57;;;5.10;;
49826;SDS011;35715;51.570;6.036;2023-12-20T12:40:10;17.42;;;5.75;;
49826;SDS011;35715;51.570;6.036;2023-12-20T12:42:38;14.18;;;5.47;;
49826;SDS011;35715;51.570;6.036;2023-12-20T12:45:04;18.80;;;5.35;;
49826;SDS011;35715;51.570;6.036;2023-12-20T12:47:30;21.08;;;6.72;;
49826;SDS011;35715;51.570;6.036;2023-12-20T12:49:56;15.70;;;5.15;;
49826;SDS011;35715;51.570;6.036;2023-12-20T12:52:21;18.15;;;5.30;;
49826;SDS011;35715;51.570;6.036;2023-12-20T12:54:47;10.30;;;4.35;;
49826;SDS011;35715;51.570;6.036;2023-12-20T12:57:13;14.95;;;5.57;;
49826;SDS011;35715;51.570;6.036;2023-12-20T12:59:40;12.65;;;4.80;;
49826;SDS011;35715;51.570;6.036;2023-12-20T13:02:06;16.48;;;4.90;;
49826;SDS011;35715;51.570;6.036;2023-12-20T13:04:31;15.02;;;5.65;;
49826;SDS011;35715;51.570;6.036;2023-12-20T13:06:57;18.33;;;5.35;;
49826;SDS011;35715;51.570;6.036;2023-12-20T13:09:22;21.95;;;6.55;;
49826;SDS011;35715;51.570;6.036;2023-12-20T13:11:48;20.67;;;6.43;;
49826;SDS011;35715;51.570;6.036;2023-12-20T13:14:13;20.90;;;9.23;;
49826;SDS011;35715;51.570;6.036;2023-12-20T13:16:40;15.82;;;6.40;;
49826;SDS011;35715;51.570;6.036;2023-12-20T13:19:07;20.83;;;6.43;;
49826;SDS011;35715;51.570;6.036;2023-12-20T13:21:33;30.08;;;6.70;;
49826;SDS011;35715;51.570;6.036;2023-12-20T13:23:58;12.60;;;5.25;;
49826;SDS011;35715;51.570;6.036;2023-12-20T13:26:24;27.85;;;7.13;;
49826;SDS011;35715;51.570;6.036;2023-12-20T13:28:49;18.55;;;6.47;;
49826;SDS011;35715;51.570;6.036;2023-12-20T13:31:15;20.10;;;6.85;;
49826;SDS011;35715;51.570;6.036;2023-12-20T13:33:40;17.13;;;6.50;;
49826;SDS011;35715;51.570;6.036;2023-12-20T13:36:05;10.00;;;7.03;;
49826;SDS011;35715;51.570;6.036;2023-12-20T13:38:34;21.17;;;8.20;;
49826;SDS011;35715;51.570;6.036;2023-12-20T13:40:59;14.25;;;5.20;;
49826;SDS011;35715;51.570;6.036;2023-12-20T13:43:24;11.57;;;6.45;;
49826;SDS011;35715;51.570;6.036;2023-12-20T13:45:50;20.13;;;6.70;;
49826;SDS011;35715;51.570;6.036;2023-12-20T13:48:16;20.20;;;7.93;;
49826;SDS011;35715;51.570;6.036;2023-12-20T13:50:41;15.88;;;7.05;;
49826;SDS011;35715;51.570;6.036;2023-12-20T13:53:07;25.30;;;8.00;;
49826;SDS011;35715;51.570;6.036;2023-12-20T13:55:32;17.55;;;6.22;;
49826;SDS011;35715;51.570;6.036;2023-12-20T13:57:57;21.45;;;7.18;;
49826;SDS011;35715;51.570;6.036;2023-12-20T14:00:23;13.52;;;6.55;;
49826;SDS011;35715;51.570;6.036;2023-12-20T14:02:48;13.05;;;6.47;;
49826;SDS011;35715;51.570;6.036;2023-12-20T14:05:16;17.70;;;8.65;;
49826;SDS011;35715;51.570;6.036;2023-12-20T14:07:43;17.25;;;6.53;;
49826;SDS011;35715;51.570;6.036;2023-12-20T14:10:12;16.13;;;7.13;;
49826;SDS011;35715;51.570;6.036;2023-12-20T14:12:39;27.45;;;10.50;;
49826;SDS011;35715;51.570;6.036;2023-12-20T14:15:05;19.08;;;7.15;;
49826;SDS011;35715;51.570;6.036;2023-12-20T14:17:39;13.35;;;6.22;;
49826;SDS011;35715;51.570;6.036;2023-12-20T14:20:05;16.83;;;5.18;;
49826;SDS011;35715;51.570;6.036;2023-12-20T14:22:33;19.02;;;7.65;;
49826;SDS011;35715;51.570;6.036;2023-12-20T14:24:59;19.40;;;7.70;;
49826;SDS011;35715;51.570;6.036;2023-12-20T14:27:24;18.13;;;5.40;;
49826;SDS011;35715;51.570;6.036;2023-12-20T14:29:52;17.52;;;6.97;;
49826;SDS011;35715;51.570;6.036;2023-12-20T14:32:21;11.70;;;6.50;;
49826;SDS011;35715;51.570;6.036;2023-12-20T14:34:47;22.77;;;7.97;;